Malta Bend, Missouri
Current Conditions -  °F | °C
As of 7:48 AM on Friday 24 Oct 2014 (Local Time) from KSZL Reporting Station
Haze Haze  
Wind Chill: 55°   Ceiling: 200
Heat Index: 55°   Visibility: 1.5mi
Dew Point: 55°   Wind: 6mph
Humidity: 100%   Direction: 200°SSW
Pressure: 30.08"   Gusts: NA
Location:  39.19°N, 93.36°W
Report Text: KSZL 241248Z 20005KT 1 1/2SM BR OVC002 13/13 A3008 RMK AO2A VIS 1 1/2V2 1/2
Loading
Personal Weather Stations






























Interactive Weather Map
Tropical Storm Tracking
New forecast layout! Learn more

10-Day Weather Forecast

Advertisements
Track Severe Weather on mobile